Time;durP1;ratioP1;P1;durP2;ratioP2;P2;SDS_P1;SDS_P2;PMS_P1;PMS_P2;Temp;Humidity;BMP_temperature;BMP_pressure;BME280_temperature;BME280_humidity;BME280_pressure;Samples;Min_cycle;Max_cycle;Signal;HPM_P1;HPM_P2
2023/06/02 00:01:51;;;;;;;2.42;0.60;;;;;;;13.84;71.52;102082.44;7354806;19;20317;-65
2023/06/02 00:04:23;;;;;;;4.07;0.60;;;;;;;13.90;70.96;102074.78;7355237;19;20033;-66
2023/06/02 00:06:51;;;;;;;3.22;0.60;;;;;;;13.91;71.48;102084.41;7357257;19;20036;-65
2023/06/02 00:09:19;;;;;;;7.60;0.60;;;;;;;13.79;71.27;102080.22;7361219;19;20858;-66
2023/06/02 00:11:46;;;;;;;3.08;0.65;;;;;;;13.81;71.15;102069.53;7364004;19;20026;-66
2023/06/02 00:14:14;;;;;;;2.88;0.60;;;;;;;13.79;71.54;102064.38;7362394;19;20029;-66
2023/06/02 00:16:44;;;;;;;2.90;0.50;;;;;;;13.77;71.60;102066.31;7361046;19;20106;-66
2023/06/02 00:19:14;;;;;;;2.75;0.50;;;;;;;13.81;71.56;102072.16;7365075;19;20157;-67
2023/06/02 00:21:41;;;;;;;1.33;0.40;;;;;;;13.81;71.27;102066.88;7366201;19;20014;-65
2023/06/02 00:24:09;;;;;;;3.03;0.40;;;;;;;13.76;71.19;102064.66;7363154;19;20010;-66
2023/06/02 00:26:37;;;;;;;1.83;0.50;;;;;;;13.72;71.44;102063.25;7363196;19;20019;-66
2023/06/02 00:29:04;;;;;;;2.45;0.43;;;;;;;13.74;71.68;102063.13;7363252;19;22393;-67
2023/06/02 00:31:32;;;;;;;1.20;0.40;;;;;;;13.73;71.46;102064.09;7362112;19;20737;-66
2023/06/02 00:33:59;;;;;;;5.03;0.57;;;;;;;13.75;71.41;102064.78;7361898;19;20605;-66
2023/06/02 00:36:27;;;;;;;17.45;2.38;;;;;;;13.80;71.28;102071.31;7363858;19;20332;-65
2023/06/02 00:38:54;;;;;;;3.50;0.50;;;;;;;13.78;71.20;102065.34;7362447;19;20010;-66
2023/06/02 00:41:21;;;;;;;3.35;0.60;;;;;;;13.72;71.34;102065.91;7361854;19;20015;-65
2023/06/02 00:43:49;;;;;;;2.83;0.50;;;;;;;13.71;71.63;102069.53;7362553;19;20019;-65
2023/06/02 00:46:16;;;;;;;1.20;0.50;;;;;;;13.67;71.45;102063.69;7361482;19;20379;-65
2023/06/02 00:48:44;;;;;;;2.80;0.88;;;;;;;13.64;72.02;102061.34;7361302;19;20533;-65
2023/06/02 00:51:11;;;;;;;3.38;0.50;;;;;;;13.60;72.21;102061.75;7362130;19;20029;-66
2023/06/02 00:53:39;;;;;;;3.28;0.60;;;;;;;13.57;72.18;102062.03;7359001;19;20050;-66
2023/06/02 00:56:07;;;;;;;1.20;0.40;;;;;;;13.55;72.49;102061.34;7362121;19;20090;-65
2023/06/02 00:58:37;;;;;;;2.25;0.50;;;;;;;13.53;72.76;102068.59;7362269;19;20024;-66
2023/06/02 01:01:08;;;;;;;4.93;0.50;;;;;;;13.56;72.42;102060.38;7360147;19;20014;-65
2023/06/02 01:03:38;;;;;;;1.23;0.38;;;;;;;13.55;72.20;102069.28;7360889;19;20018;-65
2023/06/02 01:06:07;;;;;;;3.80;0.30;;;;;;;13.58;72.40;102061.06;7360956;19;20041;-65
2023/06/02 01:08:39;;;;;;;1.00;0.40;;;;;;;13.53;72.17;102068.59;7361570;19;20022;-64
2023/06/02 01:11:07;;;;;;;2.22;0.30;;;;;;;13.37;72.69;102057.75;7359406;19;20332;-66
2023/06/02 01:13:35;;;;;;;2.25;0.25;;;;;;;13.43;72.74;102057.19;7362796;19;20101;-64
2023/06/02 01:16:03;;;;;;;3.10;0.30;;;;;;;13.44;72.69;102054.41;7360242;19;20217;-65
2023/06/02 01:18:35;;;;;;;0.47;0.20;;;;;;;13.45;72.73;102058.72;7360661;19;20122;-66
2023/06/02 01:21:05;;;;;;;0.52;0.20;;;;;;;13.42;72.11;102060.78;7359563;19;20391;-66
2023/06/02 01:23:35;;;;;;;1.50;0.20;;;;;;;13.42;72.11;102063.44;7360231;19;20014;-66
2023/06/02 01:26:05;;;;;;;0.82;0.30;;;;;;;13.41;72.40;102064.44;7358248;19;20591;-65
2023/06/02 01:28:32;;;;;;;2.83;0.20;;;;;;;13.36;71.04;102064.03;7363121;19;20037;-65
2023/06/02 01:31:11;;;;;;;3.28;0.30;;;;;;;13.32;71.25;102055.53;7356387;19;20548;-66
2023/06/02 01:33:45;;;;;;;0.77;0.22;;;;;;;13.02;72.08;102061.75;7357977;19;20126;-65
2023/06/02 01:36:13;;;;;;;3.50;0.20;;;;;;;13.11;71.77;102066.22;7361276;19;20014;-65
2023/06/02 01:38:43;;;;;;;2.47;0.30;;;;;;;13.12;71.97;102064.44;7361371;19;20632;-65
2023/06/02 01:41:13;;;;;;;2.45;0.20;;;;;;;13.07;71.71;102063.97;7361888;19;20022;-66
2023/06/02 01:43:41;;;;;;;3.83;1.27;;;;;;;12.98;72.10;102063.00;7358139;19;20022;-66
2023/06/02 01:46:11;;;;;;;5.20;0.40;;;;;;;13.05;72.36;102061.50;7357398;19;20034;-66
2023/06/02 01:48:40;;;;;;;1.15;0.30;;;;;;;13.08;72.63;102063.84;7360833;19;20760;-65
2023/06/02 01:51:07;;;;;;;4.00;0.43;;;;;;;13.12;71.65;102070.53;7359471;19;20041;-65
2023/06/02 01:53:34;;;;;;;2.45;0.30;;;;;;;13.13;71.76;102064.28;7360515;19;20033;-65
2023/06/02 01:56:01;;;;;;;2.05;0.30;;;;;;;13.11;71.91;102062.72;7361058;19;20837;-64
2023/06/02 01:58:29;;;;;;;3.00;0.40;;;;;;;13.15;71.84;102061.53;7355828;19;20035;-66
2023/06/02 02:00:57;;;;;;;4.68;0.40;;;;;;;13.17;72.03;102056.91;7362247;19;20014;-65
2023/06/02 02:03:24;;;;;;;4.43;0.32;;;;;;;13.20;72.01;102059.31;7358310;19;20025;-65
2023/06/02 02:05:51;;;;;;;0.90;0.40;;;;;;;13.17;71.74;102056.91;7363178;19;20082;-65
2023/06/02 02:08:18;;;;;;;2.28;0.30;;;;;;;13.20;71.99;102051.38;7363592;19;20019;-65
2023/06/02 02:10:45;;;;;;;4.47;0.45;;;;;;;13.17;72.05;102051.63;7360871;19;21252;-66
2023/06/02 02:13:13;;;;;;;4.00;0.45;;;;;;;13.20;72.00;102049.56;7357460;19;20025;-65
2023/06/02 02:15:40;;;;;;;3.40;0.60;;;;;;;13.22;72.79;102050.25;7359025;19;20577;-65
2023/06/02 02:18:07;;;;;;;1.33;0.40;;;;;;;13.25;72.96;102059.72;7357876;19;20026;-65
2023/06/02 02:20:40;;;;;;;3.85;0.50;;;;;;;13.26;71.80;102046.34;7360162;19;20018;-65
2023/06/02 02:23:08;;;;;;;4.00;0.40;;;;;;;13.31;70.90;102058.31;7358106;19;20014;-64
2023/06/02 02:25:35;;;;;;;2.63;0.40;;;;;;;13.23;70.96;102054.56;7358786;19;20025;-65
2023/06/02 02:28:03;;;;;;;3.08;0.30;;;;;;;13.19;71.35;102047.88;7357907;19;20007;-66
2023/06/02 02:30:30;;;;;;;3.53;0.30;;;;;;;13.18;71.13;102043.56;7356991;19;20122;-65
2023/06/02 02:32:57;;;;;;;4.88;0.40;;;;;;;13.11;71.30;102049.50;7358027;19;20015;-65
2023/06/02 02:35:25;;;;;;;6.10;0.43;;;;;;;13.11;71.43;102042.44;7354201;19;20353;-65
2023/06/02 02:37:52;;;;;;;3.33;0.52;;;;;;;13.11;71.72;102042.44;7358771;19;20049;-64
2023/06/02 02:40:19;;;;;;;4.22;0.93;;;;;;;13.15;71.09;102038.56;7358632;19;20024;-66
2023/06/02 02:42:46;;;;;;;2.38;0.40;;;;;;;13.15;70.87;102043.88;7359874;19;20014;-65
2023/06/02 02:45:14;;;;;;;8.10;0.60;;;;;;;13.18;71.44;102045.38;7358367;19;20491;-64
2023/06/02 02:47:41;;;;;;;5.78;0.40;;;;;;;13.13;70.00;102035.22;7357114;19;20021;-64
2023/06/02 02:50:09;;;;;;;5.43;0.50;;;;;;;13.14;70.34;102031.63;7359677;19;20029;-66
2023/06/02 02:52:36;;;;;;;4.78;0.50;;;;;;;13.16;69.87;102034.94;7360310;19;20079;-65
2023/06/02 02:55:05;;;;;;;4.82;0.95;;;;;;;13.12;69.50;102038.00;7356788;19;20007;-65
2023/06/02 02:57:32;;;;;;;8.57;0.60;;;;;;;13.13;69.74;102032.59;7358881;19;20014;-65
2023/06/02 02:59:59;;;;;;;6.32;0.50;;;;;;;13.12;69.13;102030.91;7355546;19;20039;-64
2023/06/02 03:02:27;;;;;;;5.53;0.52;;;;;;;13.09;68.84;102031.16;7351277;19;20018;-65
2023/06/02 03:04:56;;;;;;;3.28;0.50;;;;;;;13.06;68.88;102036.72;7359379;19;20514;-65
2023/06/02 03:07:24;;;;;;;6.13;0.65;;;;;;;13.10;68.86;102034.66;7356227;19;20025;-65
2023/06/02 03:09:52;;;;;;;4.65;1.20;;;;;;;13.04;68.36;102025.47;7357198;19;20037;-65
2023/06/02 03:12:19;;;;;;;5.35;0.45;;;;;;;13.06;68.63;102031.44;7356452;19;20021;-65
2023/06/02 03:14:47;;;;;;;6.18;0.52;;;;;;;12.98;68.09;102036.59;7358812;19;20010;-65
2023/06/02 03:17:14;;;;;;;3.95;0.63;;;;;;;12.96;68.40;102035.03;7353323;19;20562;-65
2023/06/02 03:19:42;;;;;;;5.07;0.77;;;;;;;12.99;68.19;102030.34;7356043;19;20030;-65
2023/06/02 03:22:10;;;;;;;7.25;0.60;;;;;;;12.87;68.00;102042.00;7354495;19;20318;-65
2023/06/02 03:24:37;;;;;;;6.82;1.45;;;;;;;12.92;67.95;102038.94;7356606;19;20015;-67
2023/06/02 03:27:13;;;;;;;3.75;0.50;;;;;;;12.93;67.65;102032.69;7355500;19;20022;-65
2023/06/02 03:29:40;;;;;;;7.22;0.52;;;;;;;12.91;67.70;102042.53;7358870;19;20014;-66
2023/06/02 03:32:10;;;;;;;6.53;0.50;;;;;;;12.75;67.41;102043.91;7352588;19;20014;-65
2023/06/02 03:34:39;;;;;;;5.05;0.60;;;;;;;12.84;67.67;102034.34;7357994;19;20025;-66
2023/06/02 03:37:07;;;;;;;7.88;1.45;;;;;;;12.86;68.26;102035.03;7355353;19;20601;-65
2023/06/02 03:39:34;;;;;;;4.43;0.57;;;;;;;12.88;67.87;102038.38;7357650;19;20017;-65
2023/06/02 03:42:01;;;;;;;10.23;0.90;;;;;;;12.93;67.28;102041.44;7354502;19;20532;-65
2023/06/02 03:44:29;;;;;;;6.95;0.55;;;;;;;12.98;67.80;102035.75;7356927;19;20029;-64
2023/06/02 03:46:56;;;;;;;3.17;0.50;;;;;;;12.93;67.10;102036.16;7352759;19;20047;-66
2023/06/02 03:49:27;;;;;;;8.90;0.93;;;;;;;12.93;67.55;102037.97;7356167;19;20019;-66
2023/06/02 03:51:55;;;;;;;4.40;0.68;;;;;;;12.93;68.46;102044.09;7356012;19;20022;-65
2023/06/02 03:54:22;;;;;;;6.25;0.90;;;;;;;12.97;67.54;102042.84;7357893;19;20645;-65
2023/06/02 03:56:49;;;;;;;9.00;0.70;;;;;;;12.98;67.39;102044.50;7357279;19;20011;-65
2023/06/02 03:59:17;;;;;;;5.13;0.70;;;;;;;13.03;68.28;102042.28;7357521;19;20610;-65
2023/06/02 04:01:44;;;;;;;5.03;0.60;;;;;;;12.97;67.08;102049.91;7355652;19;22018;-66
2023/06/02 04:04:12;;;;;;;3.78;1.02;;;;;;;12.88;67.39;102050.75;7356617;19;20415;-65
2023/06/02 04:06:41;;;;;;;7.40;0.65;;;;;;;12.79;67.78;102050.63;7356373;19;20014;-65
2023/06/02 04:09:12;;;;;;;6.28;0.75;;;;;;;12.81;67.66;102053.94;7358013;19;20529;-65
2023/06/02 04:11:41;;;;;;;4.78;0.57;;;;;;;12.80;67.94;102048.78;7355288;19;20532;-66
2023/06/02 04:14:08;;;;;;;3.83;0.60;;;;;;;12.80;68.01;102054.06;7357002;19;20033;-64
2023/06/02 04:16:36;;;;;;;6.30;0.60;;;;;;;12.86;67.85;102053.53;7354742;19;20749;-65
2023/06/02 04:19:05;;;;;;;6.20;0.82;;;;;;;12.90;68.51;102052.28;7355177;19;20015;-65
2023/06/02 04:21:32;;;;;;;5.32;0.70;;;;;;;12.91;69.07;102053.94;7355701;19;20007;-65
2023/06/02 04:24:00;;;;;;;4.13;0.70;;;;;;;12.99;67.57;102048.00;7354297;19;20010;-66
2023/06/02 04:26:27;;;;;;;5.10;0.60;;;;;;;12.95;67.32;102043.97;7354893;19;20108;-65
2023/06/02 04:28:54;;;;;;;6.38;0.70;;;;;;;12.97;67.26;102050.75;7357676;19;20518;-65
2023/06/02 04:31:38;;;;;;;10.02;0.70;;;;;;;12.93;67.10;102052.00;7349573;19;20530;-65
2023/06/02 04:34:06;;;;;;;8.77;1.05;;;;;;;12.92;68.05;102046.84;7355068;19;20026;-65
2023/06/02 04:36:36;;;;;;;3.97;0.70;;;;;;;12.91;67.58;102046.03;7355630;19;20018;-65
2023/06/02 04:39:06;;;;;;;6.90;0.77;;;;;;;12.93;67.45;102046.72;7356292;19;20018;-65
2023/06/02 04:41:36;;;;;;;11.80;0.80;;;;;;;12.93;67.63;102049.38;7355945;19;20014;-64
2023/06/02 04:44:05;;;;;;;7.30;0.90;;;;;;;12.96;67.70;102061.47;7356408;19;20119;-65
2023/06/02 04:46:33;;;;;;;5.68;0.80;;;;;;;12.96;67.18;102056.16;7352609;19;20116;-65
2023/06/02 04:49:07;;;;;;;8.20;0.80;;;;;;;12.95;67.84;102052.72;7355524;19;20340;-65
2023/06/02 04:51:35;;;;;;;5.75;0.88;;;;;;;12.97;67.98;102055.19;7354520;19;20023;-65
2023/06/02 04:54:03;;;;;;;7.18;0.80;;;;;;;12.99;67.34;102056.75;7355827;19;20114;-65
2023/06/02 04:56:31;;;;;;;4.70;0.80;;;;;;;13.01;66.98;102053.94;7362643;19;20020;-66
2023/06/02 04:58:59;;;;;;;5.82;0.82;;;;;;;12.99;67.08;102058.56;7362233;19;20010;-65
2023/06/02 05:01:28;;;;;;;7.50;0.80;;;;;;;12.95;66.62;102055.38;7356133;19;20086;-67
2023/06/02 05:03:55;;;;;;;6.85;0.80;;;;;;;12.96;66.29;102049.09;7360703;19;20660;-65
2023/06/02 05:06:23;;;;;;;6.18;0.90;;;;;;;12.96;66.22;102059.66;7361204;19;20530;-66
2023/06/02 05:08:51;;;;;;;4.95;0.70;;;;;;;12.97;66.73;102057.84;7361734;19;20011;-67
2023/06/02 05:11:18;;;;;;;5.55;0.80;;;;;;;13.02;66.03;102061.75;7361997;19;20509;-65
2023/06/02 05:13:45;;;;;;;5.35;0.57;;;;;;;13.05;65.98;102065.94;7361388;19;20037;-65
2023/06/02 05:16:13;;;;;;;8.32;1.08;;;;;;;13.05;65.67;102064.13;7359343;19;21838;-65
2023/06/02 05:18:41;;;;;;;6.13;0.55;;;;;;;13.06;65.88;102063.13;7363890;19;20380;-65
2023/06/02 05:21:10;;;;;;;4.00;0.70;;;;;;;13.05;66.33;102064.13;7361638;19;20041;-65
2023/06/02 05:23:39;;;;;;;4.28;0.80;;;;;;;13.04;65.13;102064.25;7361314;19;20018;-65
2023/06/02 05:26:07;;;;;;;5.07;0.95;;;;;;;13.07;65.79;102066.63;7361456;19;20155;-66
2023/06/02 05:28:34;;;;;;;6.00;0.90;;;;;;;13.05;64.42;102071.22;7356735;19;20015;-66
2023/06/02 05:31:02;;;;;;;6.68;0.88;;;;;;;12.92;64.74;102060.06;7358831;19;20688;-65
2023/06/02 05:33:31;;;;;;;6.35;0.77;;;;;;;12.80;65.26;102064.63;7359920;19;20090;-66
2023/06/02 05:35:58;;;;;;;7.05;0.77;;;;;;;12.80;65.45;102062.81;7360479;19;20021;-65
2023/06/02 05:38:25;;;;;;;9.13;0.80;;;;;;;12.85;65.59;102065.88;7362438;19;20621;-65
2023/06/02 05:40:53;;;;;;;5.25;0.95;;;;;;;12.86;65.43;102059.66;7361292;19;20033;-66
2023/06/02 05:43:20;;;;;;;8.57;1.10;;;;;;;12.92;64.99;102052.97;7361263;19;20065;-65
2023/06/02 05:45:47;;;;;;;6.60;0.70;;;;;;;12.78;65.46;102059.50;7359310;19;20014;-65
2023/06/02 05:48:14;;;;;;;9.85;0.90;;;;;;;12.75;65.88;102051.00;7356003;19;20033;-66
2023/06/02 05:50:43;;;;;;;8.93;1.20;;;;;;;12.79;65.79;102053.25;7360860;19;20013;-65
2023/06/02 05:53:10;;;;;;;5.15;0.80;;;;;;;12.82;66.74;102052.13;7360229;19;20010;-66
2023/06/02 05:55:38;;;;;;;7.55;1.02;;;;;;;12.84;66.98;102058.13;7361792;19;20029;-65
2023/06/02 05:58:05;;;;;;;8.30;1.15;;;;;;;12.86;66.67;102050.88;7361089;19;20060;-65
2023/06/02 06:00:32;;;;;;;5.72;0.70;;;;;;;12.91;68.01;102055.75;7358784;19;21426;-65
2023/06/02 06:02:59;;;;;;;11.55;1.02;;;;;;;12.91;65.98;102053.09;7359254;19;21741;-64
2023/06/02 06:05:27;;;;;;;10.27;0.68;;;;;;;12.92;65.66;102047.69;7360949;19;20014;-65
2023/06/02 06:07:54;;;;;;;8.93;0.68;;;;;;;12.92;65.32;102052.13;7360029;19;20114;-66
2023/06/02 06:10:21;;;;;;;5.63;0.60;;;;;;;12.94;65.93;102050.22;7358670;19;20033;-66
2023/06/02 06:12:49;;;;;;;5.43;0.70;;;;;;;12.95;65.81;102055.38;7359070;19;20026;-65
2023/06/02 06:15:16;;;;;;;6.40;0.77;;;;;;;12.97;65.20;102052.56;7356124;19;20058;-67
2023/06/02 06:17:49;;;;;;;9.02;0.90;;;;;;;12.96;65.65;102048.25;7357656;19;20043;-66
2023/06/02 06:20:16;;;;;;;;;;;;;;;12.98;65.88;102041.03;7359927;19;20015;-64
2023/06/02 06:22:43;;;;;;;7.07;0.80;;;;;;;12.99;65.94;102048.00;7358860;19;19919;-65
2023/06/02 06:25:11;;;;;;;11.77;1.25;;;;;;;12.92;65.68;102049.50;7358994;19;20479;-66
2023/06/02 06:27:39;;;;;;;5.00;0.73;;;;;;;12.92;65.91;102049.50;7358082;19;20383;-65
2023/06/02 06:30:07;;;;;;;6.78;1.00;;;;;;;12.92;65.69;102049.50;7361111;19;20931;-65
2023/06/02 06:32:35;;;;;;;9.43;1.00;;;;;;;12.93;66.71;102054.66;7355671;19;20022;-65
2023/06/02 06:35:03;;;;;;;6.55;0.70;;;;;;;12.94;66.60;102045.75;7359507;19;20022;-65
2023/06/02 06:37:30;;;;;;;6.65;0.77;;;;;;;12.94;66.17;102055.50;7359966;19;20043;-66
2023/06/02 06:39:57;;;;;;;7.88;0.90;;;;;;;12.92;65.47;102058.25;7360318;19;20379;-65
2023/06/02 06:42:25;;;;;;;6.50;0.70;;;;;;;12.83;65.30;102057.28;7361407;19;20018;-66
2023/06/02 06:44:52;;;;;;;5.18;0.80;;;;;;;12.67;65.87;102061.41;7360366;19;20066;-66
2023/06/02 06:47:19;;;;;;;7.75;0.80;;;;;;;12.63;66.22;102063.50;7356773;19;20287;-66
2023/06/02 06:49:46;;;;;;;5.32;0.80;;;;;;;12.61;66.15;102057.50;7359099;19;20023;-66
2023/06/02 06:52:14;;;;;;;5.22;1.20;;;;;;;12.54;66.15;102056.41;7355771;19;20019;-66
2023/06/02 06:54:43;;;;;;;5.95;0.90;;;;;;;12.49;65.79;102057.78;7359051;19;20022;-65
2023/06/02 06:57:11;;;;;;;4.50;0.60;;;;;;;12.55;65.76;102060.69;7355674;19;20015;-65
2023/06/02 06:59:42;;;;;;;12.57;0.90;;;;;;;12.56;65.62;102065.00;7358699;19;20022;-66
2023/06/02 07:02:10;;;;;;;4.30;0.85;;;;;;;12.62;65.56;102061.81;7353572;19;20026;-65
2023/06/02 07:04:38;;;;;;;5.75;0.90;;;;;;;12.70;65.57;102061.97;7359402;19;20026;-66
2023/06/02 07:07:05;;;;;;;8.43;1.23;;;;;;;12.76;65.50;102063.25;7356911;19;20316;-67
2023/06/02 07:09:33;;;;;;;9.48;1.10;;;;;;;12.84;65.27;102066.06;7359157;19;20051;-65
2023/06/02 07:12:00;;;;;;;3.55;0.85;;;;;;;12.89;65.24;102063.84;7356685;19;21199;-65
2023/06/02 07:14:28;;;;;;;8.40;1.25;;;;;;;12.94;65.29;102081.91;7357191;19;20029;-66
2023/06/02 07:16:55;;;;;;;5.55;0.70;;;;;;;12.94;63.81;102079.28;7353191;19;20014;-66
2023/06/02 07:19:22;;;;;;;9.15;0.90;;;;;;;12.83;64.79;102064.38;7355417;19;20021;-65
2023/06/02 07:21:50;;;;;;;10.25;1.00;;;;;;;12.93;65.69;102059.09;7357760;19;20498;-65
2023/06/02 07:24:18;;;;;;;5.60;0.65;;;;;;;12.97;64.40;102066.63;7358952;19;20093;-65
2023/06/02 07:26:46;;;;;;;5.90;0.80;;;;;;;12.98;65.00;102059.53;7356815;19;20091;-66
2023/06/02 07:29:13;;;;;;;9.18;0.90;;;;;;;13.11;63.87;102060.06;7358738;19;20114;-65
2023/06/02 07:31:43;;;;;;;5.32;0.80;;;;;;;13.08;64.04;102057.72;7353043;19;20022;-65
2023/06/02 07:34:11;;;;;;;5.50;0.68;;;;;;;13.10;64.02;102056.63;7357438;19;19998;-65
2023/06/02 07:36:38;;;;;;;4.53;1.00;;;;;;;13.14;64.26;102057.19;7357479;19;20011;-66
2023/06/02 07:39:05;;;;;;;7.47;0.80;;;;;;;13.19;63.52;102063.75;7357522;19;20435;-66
2023/06/02 07:41:33;;;;;;;5.60;0.93;;;;;;;13.20;63.97;102054.00;7356630;19;20106;-66
2023/06/02 07:44:00;;;;;;;5.68;0.90;;;;;;;13.26;63.01;102061.34;7356787;19;20022;-66
2023/06/02 07:46:28;;;;;;;9.88;0.90;;;;;;;13.17;62.86;102067.47;7352667;19;20023;-65
2023/06/02 07:48:55;;;;;;;3.88;0.80;;;;;;;12.89;63.66;102074.41;7352971;19;20015;-65
2023/06/02 07:51:22;;;;;;;4.40;0.85;;;;;;;13.06;63.78;102070.22;7355160;19;20140;-65
2023/06/02 07:53:50;;;;;;;6.68;0.60;;;;;;;13.00;63.60;102065.50;7356040;19;20010;-66
2023/06/02 07:56:17;;;;;;;8.93;1.08;;;;;;;13.05;63.45;102064.13;7356617;19;20101;-65
2023/06/02 07:58:45;;;;;;;7.30;0.70;;;;;;;13.16;63.61;102069.28;7356009;19;20789;-65
2023/06/02 08:01:12;;;;;;;6.35;0.88;;;;;;;13.02;63.41;102074.97;7355399;19;20317;-66
2023/06/02 08:03:43;;;;;;;5.72;1.35;;;;;;;13.15;63.62;102069.44;7355575;19;20023;-66
2023/06/02 08:06:10;;;;;;;5.57;0.60;;;;;;;13.14;62.85;102079.19;7356539;19;20015;-67
2023/06/02 08:08:38;;;;;;;5.60;0.88;;;;;;;13.23;62.95;102077.50;7356639;19;20014;-65
2023/06/02 08:11:05;;;;;;;3.00;0.60;;;;;;;13.26;63.05;102072.78;7352059;19;20623;-66
2023/06/02 08:13:33;;;;;;;4.55;0.60;;;;;;;13.28;62.98;102070.84;7293942;19;20023;-66
2023/06/02 08:16:00;;;;;;;7.57;0.80;;;;;;;13.18;63.25;102079.72;7347138;19;20134;-65
2023/06/02 08:18:48;;;;;;;9.35;0.73;;;;;;;13.30;63.35;102070.69;7345879;19;20436;-66
2023/06/02 08:21:15;;;;;;;5.25;0.75;;;;;;;13.32;62.88;102068.75;7346726;19;20018;-66
2023/06/02 08:23:43;;;;;;;4.32;0.70;;;;;;;13.41;63.32;102075.00;7346892;19;20491;-65
2023/06/02 08:26:10;;;;;;;3.92;0.70;;;;;;;13.50;63.05;102067.06;7350265;19;20029;-65
2023/06/02 08:28:38;;;;;;;3.60;0.82;;;;;;;13.58;62.83;102059.25;7348570;19;20018;-66
2023/06/02 08:31:06;;;;;;;5.30;0.90;;;;;;;13.64;62.60;102071.06;7355115;19;20010;-66
2023/06/02 08:33:35;;;;;;;11.40;0.77;;;;;;;13.63;62.57;102078.19;7355326;19;20021;-67
2023/06/02 08:36:02;;;;;;;3.30;0.60;;;;;;;13.63;62.47;102069.41;7355347;19;20015;-67
2023/06/02 08:38:30;;;;;;;5.90;1.27;;;;;;;13.67;62.56;102071.63;7356129;19;20014;-65
2023/06/02 08:40:57;;;;;;;8.68;0.70;;;;;;;13.51;63.23;102075.84;7356421;19;20022;-65
2023/06/02 08:43:25;;;;;;;2.75;0.70;;;;;;;13.58;63.72;102061.06;7355962;19;20471;-65
2023/06/02 08:45:54;;;;;;;6.18;0.75;;;;;;;13.63;63.38;102053.53;7357022;19;20506;-67
2023/06/02 08:48:23;;;;;;;5.72;1.70;;;;;;;13.75;63.07;102064.78;7351950;19;20018;-66
2023/06/02 08:50:53;;;;;;;4.50;0.77;;;;;;;13.87;62.59;102061.81;7354010;19;20045;-66
2023/06/02 08:53:23;;;;;;;6.93;0.75;;;;;;;13.88;62.38;102062.66;7355602;19;20120;-66
2023/06/02 08:55:51;;;;;;;4.72;0.73;;;;;;;13.82;62.62;102066.72;7358251;19;20593;-66
2023/06/02 08:58:18;;;;;;;6.28;0.90;;;;;;;13.81;63.12;102057.13;7356570;19;20672;-66
2023/06/02 09:00:48;;;;;;;5.47;0.82;;;;;;;13.87;63.07;102072.41;7354134;19;20281;-66
2023/06/02 09:03:16;;;;;;;6.13;0.95;;;;;;;13.97;62.39;102069.72;7354392;19;20071;-65
2023/06/02 09:05:46;;;;;;;4.22;0.60;;;;;;;14.00;62.40;102067.66;7357577;19;20022;-65
2023/06/02 09:08:14;;;;;;;1.48;0.50;;;;;;;14.05;61.71;102073.34;7351876;19;20014;-67
2023/06/02 09:10:43;;;;;;;9.65;1.00;;;;;;;14.12;62.02;102065.63;7354040;19;20167;-65
2023/06/02 09:13:32;;;;;;;4.88;1.25;;;;;;;14.17;61.94;102066.03;7352275;19;20014;-66
2023/06/02 09:16:07;;;;;;;4.43;0.80;;;;;;;14.20;61.56;102057.81;7353410;19;20011;-66
2023/06/02 09:18:35;;;;;;;9.82;0.80;;;;;;;14.25;61.83;102058.22;7353997;19;20030;-65
2023/06/02 09:21:03;;;;;;;6.93;0.70;;;;;;;14.16;61.32;102066.19;7355627;19;20403;-65
2023/06/02 09:23:42;;;;;;;4.63;0.80;;;;;;;14.18;61.57;102054.47;7352777;19;20011;-66
2023/06/02 09:26:19;;;;;;;7.40;0.88;;;;;;;14.16;61.58;102050.31;7355250;19;21657;-65
2023/06/02 09:29:01;;;;;;;5.13;0.98;;;;;;;14.27;61.36;102050.97;7353748;19;20701;-65
2023/06/02 09:31:52;;;;;;;5.15;1.08;;;;;;;14.33;60.88;102049.53;7352045;19;21055;-66
2023/06/02 09:34:21;;;;;;;4.90;1.08;;;;;;;14.34;60.26;102045.91;7360352;19;20022;-66
2023/06/02 09:36:52;;;;;;;5.18;0.70;;;;;;;14.38;60.34;102049.94;7356644;19;20011;-66
2023/06/02 09:39:31;;;;;;;6.53;1.00;;;;;;;14.48;60.06;102050.72;7356005;19;20682;-65
2023/06/02 09:41:59;;;;;;;4.70;0.68;;;;;;;14.59;59.96;102047.03;7353421;19;20019;-64
2023/06/02 09:44:26;;;;;;;7.25;0.95;;;;;;;14.71;59.45;102057.31;7357646;19;20696;-65
2023/06/02 09:46:54;;;;;;;7.50;0.80;;;;;;;14.80;59.82;102043.16;7352319;19;20014;-65
2023/06/02 09:49:22;;;;;;;5.97;1.00;;;;;;;14.87;59.89;102057.47;7349248;19;20031;-65
2023/06/02 09:51:50;;;;;;;5.68;0.82;;;;;;;14.91;58.47;102050.88;7350932;19;20685;-65
2023/06/02 09:54:17;;;;;;;8.73;0.70;;;;;;;14.81;57.70;102052.78;7357854;19;20082;-67
2023/06/02 09:56:46;;;;;;;4.22;1.50;;;;;;;14.88;58.31;102051.16;7354171;19;20022;-65
2023/06/02 09:59:15;;;;;;;7.15;0.70;;;;;;;14.84;57.56;102047.16;7354714;19;20014;-64
2023/06/02 10:01:42;;;;;;;4.20;0.80;;;;;;;14.83;57.80;102049.97;7351136;19;20025;-64
2023/06/02 10:04:11;;;;;;;7.40;0.95;;;;;;;14.95;57.95;102054.06;7353028;19;20336;-65
2023/06/02 10:06:47;;;;;;;5.07;0.90;;;;;;;15.11;57.32;102048.91;7352547;19;20020;-64
2023/06/02 10:09:32;;;;;;;3.10;0.80;;;;;;;15.28;56.78;102041.94;7349791;19;20018;-65
2023/06/02 10:12:21;;;;;;;8.75;0.95;;;;;;;15.42;56.86;102044.03;7350870;19;20653;-65
2023/06/02 10:15:17;;;;;;;9.98;1.00;;;;;;;15.64;56.88;102056.00;7351949;19;20022;-64
2023/06/02 10:17:54;;;;;;;5.65;0.60;;;;;;;15.71;56.78;102055.22;7350450;19;20310;-64
2023/06/02 10:20:30;;;;;;;6.15;0.60;;;;;;;15.79;55.91;102057.09;7352568;19;20022;-65
2023/06/02 10:22:58;;;;;;;7.70;0.85;;;;;;;15.93;55.79;102061.84;7353925;19;20478;-65
2023/06/02 10:25:35;;;;;;;6.95;0.80;;;;;;;16.08;55.40;102056.78;7353475;19;20344;-65
2023/06/02 10:28:06;;;;;;;3.53;0.57;;;;;;;16.01;55.13;102048.59;7350970;19;20030;-64
2023/06/02 10:30:35;;;;;;;7.82;0.60;;;;;;;16.08;55.80;102044.31;7353768;19;20018;-65
2023/06/02 10:33:02;;;;;;;9.15;1.77;;;;;;;16.14;55.38;102048.16;7344294;19;20809;-65
2023/06/02 10:35:49;;;;;;;9.23;0.95;;;;;;;16.31;54.71;102062.34;7353877;19;20017;-66
2023/06/02 10:38:27;;;;;;;6.20;0.85;;;;;;;16.07;54.48;102041.81;7350180;19;20018;-65
2023/06/02 10:40:58;;;;;;;7.72;0.90;;;;;;;16.07;54.95;102052.44;7353845;19;20826;-64
2023/06/02 10:43:26;;;;;;;3.50;1.00;;;;;;;16.03;54.64;102048.44;7352898;19;20128;-65
2023/06/02 10:46:15;;;;;;;3.67;0.65;;;;;;;16.06;55.02;102048.13;7351526;19;20403;-64
2023/06/02 10:48:43;;;;;;;11.63;0.90;;;;;;;16.04;54.82;102044.81;7351186;19;20015;-65
2023/06/02 10:51:12;;;;;;;8.63;0.70;;;;;;;16.03;54.78;102038.66;7353382;19;20398;-65
2023/06/02 10:53:58;;;;;;;3.47;0.70;;;;;;;16.13;55.45;102036.72;7352476;19;20037;-65
2023/06/02 10:56:39;;;;;;;6.55;0.85;;;;;;;16.27;54.37;102048.56;7354161;19;20015;-65
2023/06/02 10:59:08;;;;;;;5.45;0.80;;;;;;;16.27;53.90;102032.63;7352814;19;21776;-64
2023/06/02 11:01:47;;;;;;;6.95;1.10;;;;;;;16.30;54.41;102039.44;7350853;19;20367;-65
2023/06/02 11:04:34;;;;;;;6.00;1.30;;;;;;;16.37;54.47;102037.78;7352161;19;21670;-65
2023/06/02 11:07:22;;;;;;;7.93;1.10;;;;;;;16.49;53.41;102023.22;7349253;19;20022;-65
2023/06/02 11:09:50;;;;;;;11.57;1.00;;;;;;;16.42;54.36;102012.41;7351293;19;20015;-66
2023/06/02 11:12:18;;;;;;;7.55;0.90;;;;;;;16.41;54.04;102021.38;7348656;19;20010;-64
2023/06/02 11:15:04;;;;;;;3.05;0.70;;;;;;;16.45;53.78;102012.09;7352154;19;20018;-65
2023/06/02 11:17:33;;;;;;;7.13;0.93;;;;;;;16.49;53.54;102016.09;7344698;19;20007;-64
2023/06/02 11:20:06;;;;;;;3.63;0.70;;;;;;;16.55;53.14;102007.47;7353742;19;20025;-64
2023/06/02 11:22:34;;;;;;;5.78;0.70;;;;;;;16.52;53.46;102006.94;7351591;19;20668;-65
2023/06/02 11:25:02;;;;;;;5.93;1.25;;;;;;;16.55;53.03;102006.66;7353232;19;20014;-65
2023/06/02 11:27:40;;;;;;;5.65;0.73;;;;;;;16.56;52.63;101997.66;7352456;19;20041;-65
2023/06/02 11:30:10;;;;;;;5.82;0.85;;;;;;;16.65;54.39;102000.22;7351352;19;20018;-63
2023/06/02 11:32:38;;;;;;;8.30;0.70;;;;;;;16.75;53.20;102002.72;7349084;19;20007;-65
2023/06/02 11:35:07;;;;;;;5.05;0.80;;;;;;;16.82;53.08;102001.06;7350937;19;20018;-65